createdAt,value
2018-07-04T00:02:04.227Z,5.07
2018-07-04T00:04:13.159Z,4.70
2018-07-04T00:06:21.052Z,4.90
2018-07-04T00:08:31.504Z,4.77
2018-07-04T00:10:39.408Z,5.03
2018-07-04T00:12:47.728Z,5.13
2018-07-04T00:14:55.791Z,5.17
2018-07-04T00:17:05.672Z,5.20
2018-07-04T00:19:14.115Z,5.30
2018-07-04T00:21:22.516Z,5.43
2018-07-04T00:23:30.779Z,5.17
2018-07-04T00:25:40.660Z,5.10
2018-07-04T00:27:48.859Z,4.90
2018-07-04T00:29:57.160Z,5.37
2018-07-04T00:32:04.999Z,4.83
2018-07-04T00:34:14.864Z,5.10
2018-07-04T00:36:22.932Z,5.00
2018-07-04T00:38:33.397Z,4.90
2018-07-04T00:40:41.404Z,4.90
2018-07-04T00:42:49.472Z,5.00
2018-07-04T00:44:57.393Z,4.83
2018-07-04T00:47:07.266Z,5.60
2018-07-04T00:49:15.343Z,4.73
2018-07-04T00:51:24.302Z,5.40
2018-07-04T00:53:32.408Z,4.70
2018-07-04T00:55:41.299Z,4.93
2018-07-04T00:57:49.202Z,4.73
2018-07-04T00:59:59.240Z,4.53
2018-07-04T01:02:07.382Z,4.87
2018-07-04T01:04:17.138Z,4.87
2018-07-04T01:06:25.108Z,5.37
2018-07-04T01:08:33.209Z,4.80
2018-07-04T01:10:41.167Z,5.00
2018-07-04T01:12:51.070Z,4.70
2018-07-04T01:14:59.127Z,4.43
2018-07-04T01:17:07.871Z,4.97
2018-07-04T01:19:15.869Z,4.80
2018-07-04T01:21:25.618Z,4.40
2018-07-04T01:23:33.523Z,4.60
2018-07-04T01:25:42.714Z,4.20
2018-07-04T01:27:50.680Z,4.30
2018-07-04T01:30:00.693Z,4.57
2018-07-04T01:32:08.565Z,4.37
2018-07-04T01:34:17.391Z,4.50
2018-07-04T01:36:25.276Z,4.03
2018-07-04T01:38:35.318Z,4.80
2018-07-04T01:40:43.311Z,3.97
2018-07-04T01:42:52.071Z,4.23
2018-07-04T01:44:59.936Z,4.23
2018-07-04T01:47:09.822Z,4.30
2018-07-04T01:49:17.852Z,4.00
2018-07-04T01:51:26.726Z,4.00
2018-07-04T01:53:34.674Z,4.20
2018-07-04T01:55:44.710Z,3.90
2018-07-04T01:57:53.811Z,3.93
2018-07-04T02:00:01.801Z,3.73
2018-07-04T02:02:09.859Z,3.80
2018-07-04T02:04:19.432Z,3.73
2018-07-04T02:06:27.771Z,3.80
2018-07-04T02:08:36.084Z,3.87
2018-07-04T02:10:44.068Z,3.67
2018-07-04T02:12:53.888Z,3.73
2018-07-04T02:15:02.131Z,3.90
2018-07-04T02:17:10.782Z,3.80
2018-07-04T02:19:19.012Z,4.00
2018-07-04T02:21:28.150Z,3.50
2018-07-04T02:23:36.214Z,3.50
2018-07-04T02:25:46.142Z,3.23
2018-07-04T02:27:54.114Z,3.80
2018-07-04T02:30:03.378Z,3.50
2018-07-04T02:32:11.377Z,3.00
2018-07-04T02:34:23.528Z,3.03
2018-07-04T02:36:35.708Z,3.13
2018-07-04T02:38:44.553Z,3.47
2018-07-04T02:40:55.166Z,3.17
2018-07-04T02:43:03.054Z,3.20
2018-07-04T02:45:11.071Z,3.40
2018-07-04T02:47:27.895Z,3.20
2018-07-04T02:49:36.051Z,2.90
2018-07-04T02:51:44.896Z,3.30
2018-07-04T02:53:52.884Z,3.10
2018-07-04T02:56:02.658Z,3.17
2018-07-04T02:58:10.613Z,3.47
2018-07-04T03:00:19.479Z,2.80
2018-07-04T03:02:27.483Z,2.60
2018-07-04T03:04:37.426Z,2.90
2018-07-04T03:06:45.890Z,2.87
2018-07-04T03:08:53.952Z,3.10
2018-07-04T03:11:01.814Z,3.00
2018-07-04T03:13:12.045Z,2.63
2018-07-04T03:15:20.070Z,2.90
2018-07-04T03:17:28.842Z,2.70
2018-07-04T03:19:36.799Z,2.93
2018-07-04T03:21:46.750Z,3.10
2018-07-04T03:23:54.649Z,2.67
2018-07-04T03:26:03.470Z,2.73
2018-07-04T03:28:11.652Z,2.90
2018-07-04T03:30:20.818Z,2.50
2018-07-04T03:32:28.845Z,2.63
2018-07-04T03:34:38.945Z,2.63
2018-07-04T03:36:46.831Z,2.90
2018-07-04T03:38:55.619Z,2.73
2018-07-04T03:41:03.585Z,2.57
2018-07-04T03:43:13.088Z,2.50
2018-07-04T03:45:21.196Z,2.83
2018-07-04T03:47:30.272Z,2.47
2018-07-04T03:49:38.428Z,2.80
2018-07-04T03:51:47.549Z,2.60
2018-07-04T03:53:55.832Z,2.53
2018-07-04T03:56:04.885Z,2.60
2018-07-04T03:58:13.235Z,2.80
2018-07-04T04:00:22.402Z,2.40
2018-07-04T04:02:30.714Z,2.60
2018-07-04T04:04:39.672Z,2.50
2018-07-04T04:06:48.067Z,2.67
2018-07-04T04:08:58.072Z,2.63
2018-07-04T04:11:06.123Z,2.80
2018-07-04T04:13:14.312Z,2.63
2018-07-04T04:15:22.121Z,2.63
2018-07-04T04:17:32.298Z,2.43
2018-07-04T04:19:40.175Z,2.40
2018-07-04T04:21:49.062Z,2.57
2018-07-04T04:23:56.828Z,2.87
2018-07-04T04:26:06.805Z,2.40
2018-07-04T04:28:14.802Z,2.40
2018-07-04T04:30:23.749Z,2.40
2018-07-04T04:32:31.885Z,2.40
2018-07-04T04:34:41.981Z,2.60
2018-07-04T04:39:03.991Z,2.53
2018-07-04T04:41:16.010Z,2.40
2018-07-04T04:43:24.764Z,2.30
2018-07-04T04:45:33.111Z,2.43
2018-07-04T04:47:41.115Z,2.30
2018-07-04T04:49:49.269Z,2.37
2018-07-04T04:51:57.288Z,2.20
2018-07-04T04:54:07.051Z,2.20
2018-07-04T04:56:15.751Z,2.50
2018-07-04T04:58:23.892Z,2.60
2018-07-04T05:00:31.977Z,2.40
2018-07-04T05:02:41.711Z,2.37
2018-07-04T05:04:49.666Z,2.33
2018-07-04T05:06:59.279Z,2.17
2018-07-04T05:09:07.215Z,2.10
2018-07-04T05:11:16.299Z,2.43
2018-07-04T05:13:24.257Z,2.27
2018-07-04T05:15:34.314Z,2.10
2018-07-04T05:17:42.457Z,2.33
2018-07-04T05:19:50.687Z,2.13
2018-07-04T05:21:58.717Z,2.40
2018-07-04T05:24:08.785Z,2.10
2018-07-04T05:26:17.146Z,2.30
2018-07-04T05:28:25.202Z,2.30
2018-07-04T05:30:33.613Z,2.20
2018-07-04T05:32:43.458Z,2.00
2018-07-04T05:34:51.284Z,2.27
2018-07-04T05:36:59.980Z,2.20
2018-07-04T05:39:08.892Z,2.10
2018-07-04T05:41:17.431Z,2.30
2018-07-04T05:43:25.385Z,2.00
2018-07-04T05:45:35.761Z,2.00
2018-07-04T05:47:44.035Z,2.40
2018-07-04T05:49:52.007Z,2.20
2018-07-04T05:52:00.068Z,2.57
2018-07-04T05:54:11.561Z,2.10
2018-07-04T05:56:19.589Z,3.50
2018-07-04T05:58:27.702Z,3.10
2018-07-04T06:00:35.578Z,2.60
2018-07-04T06:02:44.271Z,3.47
2018-07-04T06:04:52.317Z,2.87
2018-07-04T06:07:02.187Z,3.03
2018-07-04T06:09:10.192Z,3.23
2018-07-04T06:11:19.067Z,3.00
2018-07-04T06:13:26.998Z,2.93
2018-07-04T06:15:34.988Z,3.00
2018-07-04T06:17:42.975Z,3.17
2018-07-04T06:19:55.223Z,2.73
2018-07-04T06:22:04.405Z,2.40
2018-07-04T06:24:14.439Z,3.10
2018-07-04T06:26:28.035Z,2.63
2018-07-04T06:28:36.116Z,2.87
2018-07-04T06:30:44.629Z,2.60
2018-07-04T06:32:52.773Z,2.60
2018-07-04T06:35:02.529Z,2.73
2018-07-04T06:37:10.342Z,2.47
2018-07-04T06:39:12.575Z,3.10
2018-07-04T06:43:21.607Z,3.30
2018-07-04T06:45:23.331Z,2.93
2018-07-04T06:47:25.509Z,2.90
2018-07-04T06:49:27.544Z,2.70
2018-07-04T06:51:29.372Z,2.90
2018-07-04T06:53:31.219Z,3.50
2018-07-04T06:55:33.080Z,3.50
2018-07-04T06:57:34.914Z,3.43
2018-07-04T06:59:36.769Z,3.80
2018-07-04T07:01:38.548Z,4.50
2018-07-04T07:03:47.589Z,4.10
2018-07-04T07:05:55.685Z,3.90
2018-07-04T07:08:05.456Z,4.27
2018-07-04T07:10:13.569Z,3.80
2018-07-04T07:12:22.476Z,3.97
2018-07-04T07:14:30.448Z,4.70
2018-07-04T07:16:39.630Z,4.33
2018-07-04T07:18:47.410Z,4.13
2018-07-04T07:20:57.479Z,3.80
2018-07-04T07:23:05.627Z,3.90
2018-07-04T07:25:13.652Z,5.50
2018-07-04T07:27:22.774Z,4.40
2018-07-04T07:29:44.746Z,3.90
2018-07-04T07:31:53.904Z,4.10
2018-07-04T07:34:02.221Z,3.73
2018-07-04T07:36:10.905Z,4.37
2018-07-04T07:38:19.035Z,3.37
2018-07-04T07:40:26.974Z,3.20
2018-07-04T07:42:35.099Z,3.50
2018-07-04T07:44:43.153Z,3.60
2018-07-04T07:46:51.344Z,3.50
2018-07-04T07:48:59.235Z,3.50
2018-07-04T07:51:18.662Z,3.33
2018-07-04T07:53:26.668Z,3.57
2018-07-04T07:55:34.634Z,3.33
2018-07-04T07:57:42.553Z,3.53
2018-07-04T07:59:50.625Z,3.30
2018-07-04T08:01:58.540Z,3.50
2018-07-04T08:04:06.505Z,3.57
2018-07-04T08:06:14.506Z,3.20
2018-07-04T08:08:22.389Z,3.20
2018-07-04T08:10:30.420Z,3.50
2018-07-04T08:12:38.381Z,3.30
2018-07-04T08:14:46.443Z,2.93
2018-07-04T08:16:55.147Z,3.03
2018-07-04T08:19:03.326Z,2.80
2018-07-04T08:21:11.411Z,3.17
2018-07-04T08:23:19.554Z,2.93
2018-07-04T08:25:27.659Z,2.87
2018-07-04T08:29:58.877Z,3.03
2018-07-04T08:32:06.766Z,2.90
2018-07-04T08:34:14.568Z,2.73
2018-07-04T08:36:22.550Z,2.50
2018-07-04T08:38:30.470Z,2.90
2018-07-04T08:40:38.452Z,3.00
2018-07-04T08:42:46.425Z,3.30
2018-07-04T08:44:54.313Z,2.63
2018-07-04T08:47:02.263Z,2.70
2018-07-04T08:49:10.166Z,2.43
2018-07-04T08:51:18.172Z,2.77
2018-07-04T08:53:26.024Z,2.60
2018-07-04T08:55:34.117Z,2.70
2018-07-04T08:57:41.880Z,2.73
2018-07-04T08:59:49.799Z,2.87
2018-07-04T09:01:57.761Z,2.67
2018-07-04T09:04:06.172Z,2.60
2018-07-04T09:06:14.151Z,2.50
2018-07-04T09:08:22.104Z,2.37
2018-07-04T09:10:30.070Z,2.70
2018-07-04T09:12:37.762Z,2.47
2018-07-04T09:14:45.655Z,2.10
2018-07-04T09:16:53.655Z,2.50
2018-07-04T09:19:01.711Z,2.20
2018-07-04T09:21:09.982Z,2.20
2018-07-04T09:23:17.859Z,2.20
2018-07-04T09:25:25.743Z,2.03
2018-07-04T09:27:33.656Z,2.00
2018-07-04T09:29:43.733Z,2.30
2018-07-04T09:31:51.684Z,2.50
2018-07-04T09:33:59.400Z,2.50
2018-07-04T09:36:07.123Z,2.30
2018-07-04T09:38:14.874Z,2.43
2018-07-04T09:40:22.768Z,2.40
2018-07-04T09:42:30.769Z,2.30
2018-07-04T09:44:38.547Z,2.40
2018-07-04T09:46:46.435Z,2.13
2018-07-04T09:48:54.273Z,2.10
2018-07-04T09:51:02.070Z,2.40
2018-07-04T09:53:09.852Z,2.70
2018-07-04T09:55:17.773Z,2.87
2018-07-04T09:57:25.466Z,2.40
2018-07-04T09:59:33.544Z,2.73
2018-07-04T10:01:41.469Z,2.40
2018-07-04T10:03:49.488Z,2.53
2018-07-04T10:05:57.470Z,2.67
2018-07-04T10:08:05.540Z,3.20
2018-07-04T10:10:13.290Z,2.90
2018-07-04T10:12:21.307Z,2.93
2018-07-04T10:14:29.189Z,2.60
2018-07-04T10:16:37.256Z,2.90
2018-07-04T10:18:45.174Z,2.60
2018-07-04T10:20:53.169Z,2.97
2018-07-04T10:23:01.167Z,3.37
2018-07-04T10:25:09.063Z,2.83
2018-07-04T10:27:17.021Z,2.90
2018-07-04T10:29:24.948Z,3.10
2018-07-04T10:31:32.882Z,3.10
2018-07-04T10:33:40.910Z,2.50
2018-07-04T10:35:48.764Z,2.90
2018-07-04T10:37:57.063Z,2.73
2018-07-04T10:40:04.805Z,3.13
2018-07-04T10:42:13.172Z,2.40
2018-07-04T10:44:21.030Z,2.70
2018-07-04T10:46:28.958Z,2.77
2018-07-04T10:48:36.823Z,2.40
2018-07-04T10:50:44.755Z,2.60
2018-07-04T10:52:52.762Z,2.60
2018-07-04T10:55:00.940Z,2.53
2018-07-04T10:57:08.871Z,2.57
2018-07-04T10:59:17.097Z,3.00
2018-07-04T11:01:25.094Z,2.70
2018-07-04T11:03:32.971Z,2.57
2018-07-04T11:05:40.862Z,2.53
2018-07-04T11:07:49.163Z,2.70
2018-07-04T11:09:57.035Z,4.07
2018-07-04T11:12:04.788Z,3.30
2018-07-04T11:14:12.515Z,3.10
2018-07-04T11:16:20.253Z,3.23
2018-07-04T11:18:28.259Z,3.30
2018-07-04T11:20:36.259Z,3.00
2018-07-04T11:22:44.567Z,5.27
2018-07-04T11:24:52.364Z,4.10
2018-07-04T11:27:00.246Z,3.63
2018-07-04T11:29:08.228Z,3.40
2018-07-04T11:31:16.156Z,3.27
2018-07-04T11:33:23.905Z,2.90
2018-07-04T11:35:31.620Z,2.93
2018-07-04T11:37:39.452Z,3.63
2018-07-04T11:39:47.529Z,3.70
2018-07-04T11:42:00.069Z,3.10
2018-07-04T11:44:07.803Z,3.57
2018-07-04T11:46:09.548Z,3.40
2018-07-04T11:48:12.973Z,2.90
2018-07-04T11:50:16.034Z,3.33
2018-07-04T11:52:17.883Z,3.33
2018-07-04T11:54:19.741Z,3.50
2018-07-04T11:56:21.640Z,3.47
2018-07-04T11:58:23.380Z,4.27
2018-07-04T12:00:25.077Z,4.00
2018-07-04T12:02:26.801Z,4.30
2018-07-04T12:04:34.951Z,4.30
2018-07-04T12:06:42.817Z,4.20
2018-07-04T12:08:44.563Z,4.80
2018-07-04T12:10:46.603Z,4.40
2018-07-04T12:12:48.359Z,4.17
2018-07-04T12:14:50.200Z,3.87
2018-07-04T12:16:51.935Z,4.20
2018-07-04T12:18:54.649Z,3.80
2018-07-04T12:20:56.395Z,4.20
2018-07-04T12:22:58.104Z,3.40
2018-07-04T12:24:59.776Z,3.43
2018-07-04T12:27:01.818Z,2.90
2018-07-04T12:29:03.664Z,3.07
2018-07-04T12:31:05.350Z,3.67
2018-07-04T12:33:07.112Z,3.80
2018-07-04T12:35:08.795Z,4.40
2018-07-04T12:37:10.459Z,4.70
2018-07-04T12:39:12.206Z,4.17
2018-07-04T12:41:13.915Z,4.43
2018-07-04T12:43:16.360Z,4.53
2018-07-04T12:45:18.109Z,4.20
2018-07-04T12:47:19.805Z,3.80
2018-07-04T12:49:26.298Z,3.40
2018-07-04T12:51:30.620Z,3.80
2018-07-04T12:53:32.453Z,3.70
2018-07-04T12:55:43.795Z,3.07
2018-07-04T12:57:54.351Z,3.57
2018-07-04T13:00:02.253Z,2.93
2018-07-04T13:02:10.042Z,2.60
2018-07-04T13:04:17.935Z,2.53
2018-07-04T13:06:25.710Z,2.90
2018-07-04T13:08:33.619Z,2.97
2018-07-04T13:10:41.485Z,2.90
2018-07-04T13:12:49.497Z,2.77
2018-07-04T13:14:57.941Z,2.43
2018-07-04T13:17:06.177Z,2.70
2018-07-04T13:19:14.263Z,2.87
2018-07-04T13:21:22.289Z,2.37
2018-07-04T13:23:30.258Z,2.60
2018-07-04T13:25:38.556Z,2.70
2018-07-04T13:27:46.478Z,2.40
2018-07-04T13:29:54.406Z,2.60
2018-07-04T13:32:02.364Z,2.57
2018-07-04T13:34:11.133Z,2.80
2018-07-04T13:36:19.026Z,2.60
2018-07-04T13:38:26.977Z,2.80
2018-07-04T13:40:34.732Z,2.70
2018-07-04T13:42:42.764Z,2.87
2018-07-04T13:44:50.686Z,3.03
2018-07-04T13:46:59.530Z,3.53
2018-07-04T13:49:07.498Z,2.50
2018-07-04T13:51:15.430Z,2.90
2018-07-04T13:53:23.264Z,3.13
2018-07-04T13:55:31.094Z,3.73
2018-07-04T13:57:38.992Z,2.80
2018-07-04T13:59:47.411Z,2.90
2018-07-04T14:01:55.209Z,2.90
2018-07-04T14:04:03.100Z,2.80
2018-07-04T14:06:10.853Z,2.60
2018-07-04T14:08:18.727Z,2.80
2018-07-04T14:10:26.619Z,2.60
2018-07-04T14:12:34.417Z,2.77
2018-07-04T14:14:42.322Z,2.80
2018-07-04T14:16:50.110Z,2.80
2018-07-04T14:18:57.910Z,2.90
2018-07-04T14:21:05.586Z,3.00
2018-07-04T14:23:13.302Z,2.83
2018-07-04T14:25:21.053Z,2.93
2018-07-04T14:27:28.786Z,2.93
2018-07-04T14:29:36.766Z,3.43
2018-07-04T14:31:44.725Z,3.37
2018-07-04T14:33:52.475Z,3.30
2018-07-04T14:36:00.430Z,3.30
2018-07-04T14:38:08.359Z,2.87
2018-07-04T14:40:16.286Z,3.87
2018-07-04T14:42:24.136Z,3.60
2018-07-04T14:44:31.847Z,4.20
2018-07-04T14:46:39.768Z,4.13
2018-07-04T14:48:47.664Z,3.70
2018-07-04T14:50:55.612Z,3.70
2018-07-04T14:53:03.511Z,3.70
2018-07-04T14:55:11.663Z,3.63
2018-07-04T14:57:19.732Z,3.30
2018-07-04T14:59:27.869Z,4.00
2018-07-04T15:01:36.045Z,3.20
2018-07-04T15:03:45.536Z,3.67
2018-07-04T15:05:55.965Z,3.70
2018-07-04T15:08:05.124Z,3.70
2018-07-04T15:10:15.807Z,3.83
2018-07-04T15:12:24.848Z,3.60
2018-07-04T15:14:32.850Z,3.70
2018-07-04T15:16:41.444Z,3.93
2018-07-04T15:18:49.385Z,4.20
2018-07-04T15:20:57.652Z,3.93
2018-07-04T15:23:05.654Z,3.67
2018-07-04T15:25:13.632Z,4.10
2018-07-04T15:27:21.753Z,4.03
2018-07-04T15:29:29.809Z,4.10
2018-07-04T15:31:37.854Z,3.70
2018-07-04T15:33:45.855Z,3.90
2018-07-04T15:35:53.905Z,4.60
2018-07-04T15:38:02.043Z,4.60
2018-07-04T15:40:10.043Z,4.30
2018-07-04T15:42:18.098Z,4.60
2018-07-04T15:44:26.217Z,4.73
2018-07-04T15:46:34.889Z,4.53
2018-07-04T15:48:43.046Z,4.93
2018-07-04T15:50:51.450Z,4.90
2018-07-04T15:52:59.234Z,5.17
2018-07-04T15:55:07.097Z,5.30
2018-07-04T15:57:15.292Z,5.27
2018-07-04T15:59:23.577Z,5.30
2018-07-04T16:01:31.339Z,5.53
2018-07-04T16:03:39.101Z,5.57
2018-07-04T16:05:46.944Z,5.70
2018-07-04T16:07:55.048Z,5.60
2018-07-04T16:10:02.990Z,6.13
2018-07-04T16:12:10.927Z,5.73
2018-07-04T16:14:19.402Z,5.90
2018-07-04T16:16:27.262Z,6.00
2018-07-04T16:18:36.077Z,5.47
2018-07-04T16:20:43.769Z,5.00
2018-07-04T16:22:51.534Z,5.33
2018-07-04T16:24:59.442Z,4.33
2018-07-04T16:27:07.259Z,4.93
2018-07-04T16:29:15.154Z,4.47
2018-07-04T16:31:23.039Z,4.10
2018-07-04T16:33:30.892Z,3.90
2018-07-04T16:35:38.654Z,4.03
2018-07-04T16:37:46.427Z,4.13
2018-07-04T16:39:54.502Z,4.00
2018-07-04T16:42:02.443Z,4.17
2018-07-04T16:44:10.341Z,4.00
2018-07-04T16:46:18.119Z,4.30
2018-07-04T16:48:26.078Z,3.47
2018-07-04T16:50:33.990Z,4.13
2018-07-04T16:52:41.700Z,3.13
2018-07-04T16:54:49.610Z,3.90
2018-07-04T16:56:57.454Z,3.30
2018-07-04T16:59:05.243Z,2.97
2018-07-04T17:01:12.963Z,3.40
2018-07-04T17:03:20.778Z,3.33
2018-07-04T17:05:28.554Z,3.30
2018-07-04T17:07:36.341Z,3.60
2018-07-04T17:09:44.039Z,3.30
2018-07-04T17:11:51.818Z,3.47
2018-07-04T17:13:59.486Z,3.40
2018-07-04T17:16:07.278Z,3.30
2018-07-04T17:18:15.072Z,3.10
2018-07-04T17:20:22.934Z,3.00
2018-07-04T17:22:30.885Z,3.13
2018-07-04T17:24:38.643Z,2.83
2018-07-04T17:26:46.560Z,2.80
2018-07-04T17:28:54.216Z,2.90
2018-07-04T17:31:02.103Z,3.13
2018-07-04T17:33:10.031Z,2.77
2018-07-04T17:35:17.675Z,2.60
2018-07-04T17:37:26.384Z,2.80
2018-07-04T17:39:34.250Z,2.80
2018-07-04T17:41:42.284Z,3.00
2018-07-04T17:43:50.230Z,2.90
2018-07-04T17:45:58.147Z,2.83
2018-07-04T17:48:06.620Z,2.57
2018-07-04T17:50:14.596Z,2.83
2018-07-04T17:52:22.980Z,2.60
2018-07-04T17:54:30.740Z,2.80
2018-07-04T17:56:38.414Z,2.97
2018-07-04T17:58:46.283Z,2.67
2018-07-04T18:00:54.009Z,2.70
2018-07-04T18:03:01.981Z,2.83
2018-07-04T18:05:09.886Z,2.57
2018-07-04T18:07:17.862Z,2.90
2018-07-04T18:09:26.076Z,2.80
2018-07-04T18:11:34.092Z,2.70
2018-07-04T18:13:41.958Z,2.87
2018-07-04T18:15:49.882Z,2.70
2018-07-04T18:17:57.806Z,2.30
2018-07-04T18:20:05.643Z,2.27
2018-07-04T18:22:13.574Z,2.67
2018-07-04T18:24:21.398Z,2.70
2018-07-04T18:26:29.305Z,2.47
2018-07-04T18:28:37.093Z,2.60
2018-07-04T18:30:48.276Z,2.70
2018-07-04T18:32:56.273Z,2.30
2018-07-04T18:35:04.240Z,2.43
2018-07-04T18:37:12.167Z,2.53
2018-07-04T18:39:20.169Z,2.67
2018-07-04T18:41:28.200Z,2.97
2018-07-04T18:43:36.034Z,2.60
2018-07-04T18:45:44.053Z,2.63
2018-07-04T18:47:51.843Z,2.80
2018-07-04T18:50:00.179Z,3.10
2018-07-04T18:52:08.176Z,2.97
2018-07-04T18:54:16.772Z,2.80
2018-07-04T18:56:24.644Z,3.00
2018-07-04T18:58:32.438Z,3.20
2018-07-04T19:00:40.185Z,3.03
2018-07-04T19:02:47.966Z,2.80
2018-07-04T19:04:55.969Z,3.27
2018-07-04T19:07:04.106Z,3.00
2018-07-04T19:09:11.932Z,3.20
2018-07-04T19:11:19.830Z,3.23
2018-07-04T19:13:27.629Z,3.30
2018-07-04T19:15:35.445Z,3.33
2018-07-04T19:17:43.594Z,3.20
2018-07-04T19:19:51.694Z,3.30
2018-07-04T19:21:59.709Z,3.53
2018-07-04T19:24:07.787Z,3.40
2018-07-04T19:26:15.639Z,3.37
2018-07-04T19:28:24.589Z,3.27
2018-07-04T19:30:32.657Z,3.20
2018-07-04T19:32:41.336Z,3.20
2018-07-04T19:34:50.009Z,3.40
2018-07-04T19:36:57.898Z,3.40
2018-07-04T19:39:06.407Z,3.53
2018-07-04T19:41:14.206Z,3.27
2018-07-04T19:43:22.032Z,3.50
2018-07-04T19:45:29.867Z,3.27
2018-07-04T19:47:39.589Z,3.40
2018-07-04T19:49:47.661Z,3.43
2018-07-04T19:51:55.569Z,3.27
2018-07-04T19:54:04.219Z,3.33
2018-07-04T19:56:17.647Z,3.40
2018-07-04T19:58:28.843Z,3.50
2018-07-04T20:00:37.865Z,3.80
2018-07-04T20:05:29.507Z,4.00
2018-07-04T20:07:37.842Z,3.63
2018-07-04T20:09:45.618Z,3.70
2018-07-04T20:47:02.255Z,3.70
2018-07-04T20:49:10.651Z,3.30
2018-07-04T20:51:19.437Z,3.43
2018-07-04T20:53:27.392Z,3.53
2018-07-04T20:55:35.199Z,3.63
2018-07-04T20:57:43.165Z,3.57
2018-07-04T20:59:50.930Z,3.40
2018-07-04T21:01:58.871Z,3.40
2018-07-04T21:04:06.770Z,3.50
2018-07-04T21:06:14.611Z,3.47
2018-07-04T21:08:22.571Z,3.20
2018-07-04T21:10:30.425Z,3.33
2018-07-04T21:12:38.359Z,3.60
2018-07-04T21:14:46.191Z,3.40
2018-07-04T21:16:53.863Z,3.43
2018-07-04T21:19:01.603Z,3.30
2018-07-04T21:21:09.475Z,3.50
2018-07-04T21:23:17.457Z,3.53
2018-07-04T21:25:25.235Z,3.87
2018-07-04T21:27:33.013Z,3.10
2018-07-04T21:29:40.871Z,2.93
2018-07-04T21:31:48.832Z,3.50
2018-07-04T21:33:56.714Z,3.57
2018-07-04T21:36:04.483Z,3.43
2018-07-04T21:38:12.466Z,3.40
2018-07-04T21:40:20.339Z,3.13
2018-07-04T21:42:28.129Z,3.13
2018-07-04T21:44:36.102Z,3.60
2018-07-04T21:46:43.959Z,3.10
2018-07-04T21:48:51.799Z,3.20
2018-07-04T21:50:59.635Z,3.63
2018-07-04T21:53:07.591Z,3.40
2018-07-04T21:55:15.372Z,3.33
2018-07-04T21:57:23.247Z,3.57
2018-07-04T21:59:31.185Z,3.20
2018-07-04T22:01:39.289Z,3.30
2018-07-04T22:03:47.177Z,3.23
2018-07-04T22:05:56.186Z,3.27
2018-07-04T22:08:05.087Z,3.63
2018-07-04T22:10:13.184Z,3.00
2018-07-04T22:12:21.040Z,3.20
2018-07-04T22:14:29.801Z,3.37
2018-07-04T22:16:37.637Z,3.33
2018-07-04T22:18:45.472Z,3.27
2018-07-04T22:20:53.337Z,3.10
2018-07-04T22:23:01.154Z,3.37
2018-07-04T22:25:09.068Z,3.27
2018-07-04T22:27:17.090Z,3.40
2018-07-04T22:29:25.139Z,3.70
2018-07-04T22:31:33.206Z,3.60
2018-07-04T22:33:41.754Z,3.40
2018-07-04T22:35:50.781Z,3.57
2018-07-04T22:37:58.780Z,3.40
2018-07-04T22:40:06.841Z,4.13
2018-07-04T22:42:15.095Z,3.83
2018-07-04T22:44:23.043Z,4.10
2018-07-04T22:46:30.857Z,4.17
2018-07-04T22:48:38.575Z,4.10
2018-07-04T22:50:46.303Z,4.03
2018-07-04T22:52:54.286Z,4.00
2018-07-04T22:55:02.057Z,3.60
2018-07-04T22:57:09.812Z,4.20
2018-07-04T22:59:17.771Z,3.90
2018-07-04T23:01:25.626Z,4.20
2018-07-04T23:03:33.590Z,4.40
2018-07-04T23:05:41.354Z,4.03
2018-07-04T23:07:49.458Z,4.50
2018-07-04T23:09:57.416Z,4.20
2018-07-04T23:12:05.381Z,4.10
2018-07-04T23:14:13.154Z,4.27
2018-07-04T23:16:20.957Z,3.87
2018-07-04T23:18:28.891Z,4.33
2018-07-04T23:20:36.626Z,4.40
2018-07-04T23:22:44.483Z,4.73
2018-07-04T23:24:52.768Z,4.43
2018-07-04T23:27:00.668Z,4.10
2018-07-04T23:29:08.633Z,4.70
2018-07-04T23:31:16.424Z,4.57
2018-07-04T23:33:24.285Z,4.60
2018-07-04T23:35:32.092Z,4.73
2018-07-04T23:37:39.954Z,4.60
2018-07-04T23:39:47.826Z,4.20
2018-07-04T23:41:55.518Z,4.50
2018-07-04T23:44:03.279Z,4.63
2018-07-04T23:46:11.055Z,4.37
2018-07-04T23:48:18.999Z,5.00
2018-07-04T23:50:26.796Z,4.50
2018-07-04T23:52:34.631Z,4.57
2018-07-04T23:54:42.485Z,4.80
2018-07-04T23:56:50.798Z,4.70
2018-07-04T23:58:58.759Z,4.80
